Time;durP1;ratioP1;P1;durP2;ratioP2;P2;SDS_P1;SDS_P2;PMS_P1;PMS_P2;Temp;Humidity;BMP_temperature;BMP_pressure;BME280_temperature;BME280_humidity;BME280_pressure;Samples;Min_cycle;Max_cycle;Signal;HPM_P1;HPM_P2
2021/12/14 00:00:43;;;;;;;28.33;16.95;;;;;;;;;;5098813;28;20036;-51
2021/12/14 00:03:11;;;;;;;30.25;17.33;;;;;;;;;;5098706;28;20039;-48
2021/12/14 00:05:39;;;;;;;30.23;17.45;;;;;;;;;;5099524;28;20461;-52
2021/12/14 00:08:11;;;;;;;33.65;19.17;;;;;;;;;;5096603;28;20114;-52
2021/12/14 00:15:57;;;;;;;27.65;16.27;;;;;;;;;;5102070;28;20024;-51
2021/12/14 00:18:24;;;;;;;24.17;14.88;;;;;;;;;;5100652;28;20028;-49
2021/12/14 00:20:54;;;;;;;27.48;14.45;;;;;;;;;;5103889;28;20038;-55
2021/12/14 00:26:10;;;;;;;24.92;14.43;;;;;;;;;;5100816;28;20036;-53
2021/12/14 00:28:37;;;;;;;27.13;14.13;;;;;;;;;;5091679;28;20040;-46
2021/12/14 00:31:13;;;;;;;28.15;14.07;;;;;;;;;;5094115;28;20073;-55
2021/12/14 00:33:41;;;;;;;29.45;13.65;;;;;;;;;;5097518;28;20122;-52
2021/12/14 00:36:09;;;;;;;33.90;14.93;;;;;;;;;;5099043;27;20026;-55
2021/12/14 00:38:38;;;;;;;30.60;15.85;;;;;;;;;;5102612;27;20028;-53
2021/12/14 00:41:20;;;;;;;32.00;16.40;;;;;;;;;;5084695;28;20040;-52
2021/12/14 00:43:47;;;;;;;42.38;17.85;;;;;;;;;;5103106;27;20048;-55
2021/12/14 00:46:14;;;;;;;43.17;18.17;;;;;;;;;;5095658;27;20039;-54
2021/12/14 00:48:41;;;;;;;36.22;17.70;;;;;;;;;;5096757;28;20036;-53
2021/12/14 00:51:09;;;;;;;33.45;17.20;;;;;;;;;;5078235;28;20066;-52
2021/12/14 00:53:36;;;;;;;34.78;17.42;;;;;;;;;;5099602;27;20028;-54
2021/12/14 00:56:07;;;;;;;39.58;17.30;;;;;;;;;;5106533;28;20028;-49
2021/12/14 00:58:34;;;;;;;30.77;14.82;;;;;;;;;;5095669;28;20504;-51
2021/12/14 01:01:25;;;;;;;29.75;15.43;;;;;;;;;;5097394;28;20479;-53
2021/12/14 01:03:54;;;;;;;29.92;14.25;;;;;;;;;;5085061;28;20107;-53
2021/12/14 01:06:25;;;;;;;25.67;12.60;;;;;;;;;;5100113;27;20137;-53
2021/12/14 01:08:52;;;;;;;17.63;11.85;;;;;;;;;;5098296;28;20039;-55
2021/12/14 01:11:35;;;;;;;19.92;12.60;;;;;;;;;;5099116;27;20032;-52
2021/12/14 01:14:07;;;;;;;28.25;13.07;;;;;;;;;;5089698;28;20133;-53
2021/12/14 01:16:56;;;;;;;22.77;13.20;;;;;;;;;;5101536;27;20088;-51
2021/12/14 01:19:29;;;;;;;20.75;12.27;;;;;;;;;;5094542;28;20031;-48
2021/12/14 01:22:17;;;;;;;21.95;12.48;;;;;;;;;;5095683;27;20020;-51
2021/12/14 01:27:20;;;;;;;19.00;11.37;;;;;;;;;;5100295;27;20028;-49
2021/12/14 01:29:49;;;;;;;17.50;11.53;;;;;;;;;;5087933;28;20045;-54
2021/12/14 01:32:16;;;;;;;19.42;11.15;;;;;;;;;;5086718;28;20280;-55
2021/12/14 01:34:41;;;;;;;20.40;11.93;;;;;;;;;;5099538;28;20367;-51
2021/12/14 01:37:14;;;;;;;17.67;11.48;;;;;;;;;;5109211;27;20031;-51
2021/12/14 01:40:02;;;;;;;17.65;10.70;;;;;;;;;;5101397;28;20473;-54
2021/12/14 01:42:35;;;;;;;12.68;8.90;;;;;;;;;;5097598;27;20729;-53
2021/12/14 01:45:09;;;;;;;14.63;8.90;;;;;;;;;;5093983;27;20452;-54
2021/12/14 01:47:42;;;;;;;21.25;8.35;;;;;;;;;;5099133;27;20027;-54
2021/12/14 01:50:18;;;;;;;18.38;8.40;;;;;;;;;;5101931;27;20073;-53
2021/12/14 01:52:44;;;;;;;17.77;8.77;;;;;;;;;;5108522;27;20429;-51
2021/12/14 01:55:22;;;;;;;11.75;7.78;;;;;;;;;;5087106;28;20051;-54
2021/12/14 01:57:49;;;;;;;14.75;7.88;;;;;;;;;;5103578;27;20503;-54
2021/12/14 02:00:23;;;;;;;10.70;7.53;;;;;;;;;;5101140;27;20031;-55
2021/12/14 02:02:50;;;;;;;10.18;7.38;;;;;;;;;;5102917;27;20421;-52
2021/12/14 02:05:27;;;;;;;13.20;7.30;;;;;;;;;;5097009;27;20389;-55
2021/12/14 02:07:56;;;;;;;13.63;7.75;;;;;;;;;;5081311;28;20039;-54
2021/12/14 02:10:33;;;;;;;13.32;7.53;;;;;;;;;;5094663;28;20078;-52
2021/12/14 02:12:59;;;;;;;12.63;7.10;;;;;;;;;;5098751;27;20389;-55
2021/12/14 02:15:33;;;;;;;16.08;8.02;;;;;;;;;;5099261;28;20093;-52
2021/12/14 02:18:05;;;;;;;12.45;7.53;;;;;;;;;;5103076;27;20484;-48
2021/12/14 02:20:33;;;;;;;19.38;7.70;;;;;;;;;;5100559;27;20072;-51
2021/12/14 02:23:00;;;;;;;15.30;7.60;;;;;;;;;;5104443;28;20062;-52
2021/12/14 02:25:26;;;;;;;10.15;7.00;;;;;;;;;;5098442;27;20508;-51
2021/12/14 02:27:54;;;;;;;12.00;7.30;;;;;;;;;;5105068;27;20042;-52
2021/12/14 02:30:24;;;;;;;11.38;7.30;;;;;;;;;;5093568;28;20036;-54
2021/12/14 02:32:50;;;;;;;13.00;7.00;;;;;;;;;;5100912;27;20024;-51
2021/12/14 02:35:20;;;;;;;15.02;7.40;;;;;;;;;;5093290;27;20085;-53
2021/12/14 02:37:53;;;;;;;11.13;6.93;;;;;;;;;;5099343;27;20047;-53
2021/12/14 02:40:53;;;;;;;15.68;7.22;;;;;;;;;;5096265;27;20026;-51
2021/12/14 02:43:12;;;;;;;9.07;6.28;;;;;;;;;;5100691;28;20040;-52
2021/12/14 02:45:38;;;;;;;10.32;6.35;;;;;;;;;;5096586;27;20047;-54
2021/12/14 02:48:09;;;;;;;13.02;6.78;;;;;;;;;;5085180;28;20024;-55
2021/12/14 02:50:36;;;;;;;13.20;7.17;;;;;;;;;;5105061;27;20046;-52
2021/12/14 02:53:02;;;;;;;12.73;7.38;;;;;;;;;;5097736;28;20028;-49
2021/12/14 02:55:28;;;;;;;15.13;8.70;;;;;;;;;;5092877;27;20036;-51
2021/12/14 02:57:58;;;;;;;17.88;9.95;;;;;;;;;;5099282;27;20059;-51
2021/12/14 03:00:38;;;;;;;20.30;9.80;;;;;;;;;;5101940;27;20035;-53
2021/12/14 03:03:06;;;;;;;24.17;10.15;;;;;;;;;;5094625;28;20358;-53
2021/12/14 03:05:38;;;;;;;20.40;10.15;;;;;;;;;;5081044;27;20106;-54
2021/12/14 03:08:13;;;;;;;19.80;10.38;;;;;;;;;;5102384;28;20046;-51
2021/12/14 03:10:56;;;;;;;15.77;9.77;;;;;;;;;;5103946;28;22089;-51
2021/12/14 03:13:23;;;;;;;16.08;9.05;;;;;;;;;;5081754;28;20048;-53
2021/12/14 03:15:53;;;;;;;23.10;11.23;;;;;;;;;;5105580;27;20383;-49
2021/12/14 03:18:24;;;;;;;22.10;10.32;;;;;;;;;;5094250;28;20373;-52
2021/12/14 03:20:56;;;;;;;17.02;9.90;;;;;;;;;;5103594;28;20089;-46
2021/12/14 03:23:35;;;;;;;15.65;9.40;;;;;;;;;;5099820;28;20168;-50
2021/12/14 03:26:03;;;;;;;13.88;8.75;;;;;;;;;;5100049;28;20043;-52
2021/12/14 03:28:31;;;;;;;15.07;7.78;;;;;;;;;;5093215;28;20047;-48
2021/12/14 03:31:18;;;;;;;15.10;7.68;;;;;;;;;;5098617;28;20069;-48
2021/12/14 03:33:48;;;;;;;11.80;7.05;;;;;;;;;;5092327;28;20024;-50
2021/12/14 03:36:23;;;;;;;11.85;6.45;;;;;;;;;;5096893;28;20095;-50
2021/12/14 03:38:54;;;;;;;8.68;5.80;;;;;;;;;;5103789;28;20110;-46
2021/12/14 03:41:27;;;;;;;9.20;5.75;;;;;;;;;;5099582;28;20036;-47
2021/12/14 03:44:04;;;;;;;10.55;5.75;;;;;;;;;;5097665;28;20048;-47
2021/12/14 03:46:34;;;;;;;8.70;6.18;;;;;;;;;;5104313;28;20039;-50
2021/12/14 03:49:02;;;;;;;8.35;5.93;;;;;;;;;;5101021;28;20032;-47
2021/12/14 03:51:28;;;;;;;8.35;6.05;;;;;;;;;;5076459;28;20024;-49
2021/12/14 03:53:56;;;;;;;8.95;5.90;;;;;;;;;;5094425;28;20028;-48
2021/12/14 03:56:22;;;;;;;9.95;6.13;;;;;;;;;;5107198;28;20036;-46
2021/12/14 03:58:49;;;;;;;9.48;6.10;;;;;;;;;;5103728;28;20023;-47
2021/12/14 04:01:20;;;;;;;9.23;5.82;;;;;;;;;;5098229;28;20468;-47
2021/12/14 04:03:50;;;;;;;9.98;6.05;;;;;;;;;;5096826;28;20046;-47
2021/12/14 04:06:17;;;;;;;10.35;6.40;;;;;;;;;;5099069;28;20028;-49
2021/12/14 04:08:44;;;;;;;13.18;6.75;;;;;;;;;;5094244;28;20043;-49
2021/12/14 04:11:13;;;;;;;10.90;7.85;;;;;;;;;;5099880;28;20481;-47
2021/12/14 04:13:45;;;;;;;12.27;6.88;;;;;;;;;;5104814;27;20027;-46
2021/12/14 04:16:16;;;;;;;9.30;5.80;;;;;;;;;;5080064;28;20118;-52
2021/12/14 04:18:42;;;;;;;9.18;6.03;;;;;;;;;;5098776;28;20027;-49
2021/12/14 04:21:08;;;;;;;11.65;6.22;;;;;;;;;;5103263;27;20023;-51
2021/12/14 04:23:38;;;;;;;9.35;5.90;;;;;;;;;;5094999;28;20716;-49
2021/12/14 04:26:06;;;;;;;8.38;5.70;;;;;;;;;;5100751;27;20061;-51
2021/12/14 04:28:41;;;;;;;9.68;5.53;;;;;;;;;;5097185;28;20028;-49
2021/12/14 04:31:07;;;;;;;11.00;6.60;;;;;;;;;;5096422;28;20085;-49
2021/12/14 04:33:35;;;;;;;8.95;6.47;;;;;;;;;;5096459;28;20032;-50
2021/12/14 04:36:05;;;;;;;8.90;5.97;;;;;;;;;;5098288;28;20122;-49
2021/12/14 04:38:36;;;;;;;11.70;6.55;;;;;;;;;;5099506;27;20027;-52
2021/12/14 04:52:01;;;;;;;8.88;6.15;;;;;;;;;;5105733;27;20031;-52
2021/12/14 04:54:41;;;;;;;12.13;6.95;;;;;;;;;;5094331;28;20541;-53
2021/12/14 04:57:38;;;;;;;10.65;6.40;;;;;;;;;;5087022;28;20488;-50
2021/12/14 05:00:33;;;;;;;16.73;7.22;;;;;;;;;;5034171;28;20057;-47
2021/12/14 05:03:02;;;;;;;11.32;6.30;;;;;;;;;;5044161;28;20196;-49
2021/12/14 05:05:34;;;;;;;10.80;6.93;;;;;;;;;;5035154;28;20077;-51
2021/12/14 05:11:00;;;;;;;11.73;6.13;;;;;;;;;;5022793;28;20041;-47
2021/12/14 05:13:29;;;;;;;9.98;6.53;;;;;;;;;;5020249;28;20049;-50
2021/12/14 05:15:56;;;;;;;12.63;6.60;;;;;;;;;;5020386;28;20044;-50
2021/12/14 05:18:22;;;;;;;9.10;6.28;;;;;;;;;;5024876;28;20077;-47
2021/12/14 05:20:50;;;;;;;11.02;6.68;;;;;;;;;;5021102;28;20065;-53
2021/12/14 05:23:24;;;;;;;8.23;5.28;;;;;;;;;;5025383;28;20473;-52
2021/12/14 05:25:51;;;;;;;8.80;6.28;;;;;;;;;;5016243;28;20049;-50
2021/12/14 05:28:19;;;;;;;11.30;6.75;;;;;;;;;;5021771;28;20128;-52
2021/12/14 05:30:48;;;;;;;9.18;6.35;;;;;;;;;;5023803;28;20034;-50
2021/12/14 05:33:19;;;;;;;14.73;6.78;;;;;;;;;;5024487;28;20488;-54
2021/12/14 05:35:48;;;;;;;14.07;6.78;;;;;;;;;;5020737;28;20122;-49
2021/12/14 05:38:20;;;;;;;8.63;5.93;;;;;;;;;;4997393;28;20050;-47
2021/12/14 05:43:24;;;;;;;9.93;6.38;;;;;;;;;;4999480;28;20484;-53
2021/12/14 05:45:53;;;;;;;10.70;7.18;;;;;;;;;;4992101;28;20065;-52
2021/12/14 05:48:23;;;;;;;11.40;6.22;;;;;;;;;;5057002;28;20039;-51
2021/12/14 05:50:53;;;;;;;12.25;6.97;;;;;;;;;;5079504;28;20034;-49
2021/12/14 05:53:29;;;;;;;10.27;6.72;;;;;;;;;;5080793;28;20427;-53
2021/12/14 05:55:56;;;;;;;8.48;6.15;;;;;;;;;;5078001;28;20032;-51
2021/12/14 05:58:24;;;;;;;12.55;6.38;;;;;;;;;;5077708;28;20056;-48
2021/12/14 06:00:57;;;;;;;10.63;6.50;;;;;;;;;;5071360;28;20040;-48
2021/12/14 06:03:30;;;;;;;10.48;6.43;;;;;;;;;;5079754;28;20497;-51
2021/12/14 06:05:58;;;;;;;11.15;6.50;;;;;;;;;;5078874;28;20028;-49
2021/12/14 06:08:28;;;;;;;18.25;10.43;;;;;;;;;;5065817;28;20082;-51
2021/12/14 06:10:57;;;;;;;26.77;15.32;;;;;;;;;;5081941;28;20031;-52
2021/12/14 06:13:41;;;;;;;21.88;13.27;;;;;;;;;;5074786;28;20035;-52
2021/12/14 06:16:08;;;;;;;30.05;15.10;;;;;;;;;;5081993;28;20649;-50
2021/12/14 06:18:34;;;;;;;25.13;14.63;;;;;;;;;;5072971;28;20028;-48
2021/12/14 06:21:00;;;;;;;24.17;12.90;;;;;;;;;;5079726;28;20093;-47
2021/12/14 06:23:28;;;;;;;23.10;12.82;;;;;;;;;;5077310;28;20040;-49
2021/12/14 06:25:56;;;;;;;20.88;11.73;;;;;;;;;;5091051;28;20044;-51
2021/12/14 06:28:28;;;;;;;24.80;14.05;;;;;;;;;;5092707;28;20516;-48
2021/12/14 06:30:56;;;;;;;19.65;12.10;;;;;;;;;;5096132;28;20071;-51
2021/12/14 06:33:22;;;;;;;23.17;12.77;;;;;;;;;;5100712;28;20093;-49
2021/12/14 06:35:50;;;;;;;13.27;8.25;;;;;;;;;;5097878;27;20035;-50
2021/12/14 06:38:30;;;;;;;10.30;6.47;;;;;;;;;;5094084;28;20051;-55
2021/12/14 06:41:01;;;;;;;11.05;6.07;;;;;;;;;;5094152;27;20038;-50
2021/12/14 06:43:26;;;;;;;13.75;7.10;;;;;;;;;;5093275;28;20121;-50
2021/12/14 06:45:57;;;;;;;16.55;6.50;;;;;;;;;;5096875;27;20036;-52
2021/12/14 06:48:30;;;;;;;8.82;6.15;;;;;;;;;;5095268;28;20076;-53
2021/12/14 06:51:01;;;;;;;10.73;6.25;;;;;;;;;;5092468;28;20034;-52
2021/12/14 06:53:28;;;;;;;7.82;5.85;;;;;;;;;;5093261;28;20051;-49
2021/12/14 06:55:56;;;;;;;7.60;5.53;;;;;;;;;;5096716;28;20085;-53
2021/12/14 06:58:26;;;;;;;10.18;5.90;;;;;;;;;;5091822;28;20036;-51
2021/12/14 07:01:10;;;;;;;8.57;5.50;;;;;;;;;;5090670;27;20087;-51
2021/12/14 07:03:43;;;;;;;8.43;5.30;;;;;;;;;;5092734;27;20036;-53
2021/12/14 07:06:22;;;;;;;7.70;5.65;;;;;;;;;;5095526;28;20027;-51
2021/12/14 07:08:48;;;;;;;8.70;5.70;;;;;;;;;;5094311;28;20768;-54
2021/12/14 07:11:22;;;;;;;11.82;5.53;;;;;;;;;;5099560;28;20123;-50
2021/12/14 07:13:50;;;;;;;12.65;6.03;;;;;;;;;;5098372;28;20074;-48
2021/12/14 07:16:27;;;;;;;8.48;6.18;;;;;;;;;;5098056;28;20418;-53
2021/12/14 07:18:55;;;;;;;8.68;6.53;;;;;;;;;;5097952;28;20028;-52
2021/12/14 07:21:43;;;;;;;9.23;6.50;;;;;;;;;;5095405;28;20559;-52
2021/12/14 07:24:21;;;;;;;11.07;5.45;;;;;;;;;;5097501;28;20049;-54
2021/12/14 07:26:49;;;;;;;10.13;5.85;;;;;;;;;;5093183;28;20039;-51
2021/12/14 07:29:24;;;;;;;14.25;5.65;;;;;;;;;;5099095;28;20413;-51
2021/12/14 07:31:50;;;;;;;10.57;6.00;;;;;;;;;;5099316;28;20036;-54
2021/12/14 07:34:21;;;;;;;10.85;6.93;;;;;;;;;;5105332;28;20410;-51
2021/12/14 07:36:47;;;;;;;12.57;7.03;;;;;;;;;;5094417;28;20455;-54
2021/12/14 07:39:18;;;;;;;9.40;6.32;;;;;;;;;;5096189;28;20024;-54
2021/12/14 07:41:48;;;;;;;10.57;6.45;;;;;;;;;;5096997;28;20043;-50
2021/12/14 07:44:18;;;;;;;11.32;6.85;;;;;;;;;;5098834;27;20024;-50
2021/12/14 07:46:44;;;;;;;10.85;6.35;;;;;;;;;;5099791;28;20398;-49
2021/12/14 07:49:21;;;;;;;9.52;6.47;;;;;;;;;;5098954;27;20496;-52
2021/12/14 07:51:50;;;;;;;7.53;5.68;;;;;;;;;;5103048;28;20032;-54
2021/12/14 07:54:20;;;;;;;10.05;6.15;;;;;;;;;;5098747;28;20028;-48
2021/12/14 07:56:50;;;;;;;9.45;5.43;;;;;;;;;;5097780;28;20476;-50
2021/12/14 07:59:26;;;;;;;7.68;5.35;;;;;;;;;;5107257;27;20023;-52
2021/12/14 08:02:14;;;;;;;7.07;5.32;;;;;;;;;;5102781;28;20024;-49
2021/12/14 08:04:45;;;;;;;10.60;5.63;;;;;;;;;;5101632;27;20058;-51
2021/12/14 08:07:23;;;;;;;9.07;5.70;;;;;;;;;;5097231;27;20032;-50
2021/12/14 08:09:51;;;;;;;9.18;5.68;;;;;;;;;;5099968;27;20077;-50
2021/12/14 08:12:33;;;;;;;9.02;5.43;;;;;;;;;;5093626;28;20024;-52
2021/12/14 08:15:21;;;;;;;9.00;5.65;;;;;;;;;;5106581;28;20465;-54
2021/12/14 08:17:58;;;;;;;10.95;5.70;;;;;;;;;;5102901;28;20040;-51
2021/12/14 08:20:25;;;;;;;11.88;6.03;;;;;;;;;;5107636;27;20076;-54
2021/12/14 08:22:51;;;;;;;7.97;5.50;;;;;;;;;;5102936;28;20039;-50
2021/12/14 08:25:25;;;;;;;14.13;5.68;;;;;;;;;;5101612;27;20032;-52
2021/12/14 08:28:05;;;;;;;8.52;6.00;;;;;;;;;;5100234;28;20042;-53
2021/12/14 08:30:32;;;;;;;9.35;5.28;;;;;;;;;;5100670;27;20048;-55
2021/12/14 08:32:58;;;;;;;8.30;4.72;;;;;;;;;;5099965;28;20039;-55
2021/12/14 08:35:25;;;;;;;9.50;4.70;;;;;;;;;;5098278;28;20040;-54
2021/12/14 08:37:56;;;;;;;12.20;4.78;;;;;;;;;;5109629;28;20742;-51
2021/12/14 08:40:26;;;;;;;16.98;10.05;;;;;;;;;;5103991;27;20034;-52
2021/12/14 08:43:10;;;;;;;22.10;14.38;;;;;;;;;;5103964;27;20031;-55
2021/12/14 08:45:42;;;;;;;39.95;15.55;;;;;;;;;;5094289;28;20035;-54
2021/12/14 08:48:24;;;;;;;35.17;16.17;;;;;;;;;;5098483;28;20054;-56
2021/12/14 08:50:58;;;;;;;33.67;15.38;;;;;;;;;;5094495;28;20503;-54
2021/12/14 08:53:30;;;;;;;28.23;15.85;;;;;;;;;;5096306;28;20032;-55
2021/12/14 08:55:58;;;;;;;21.90;12.02;;;;;;;;;;5099613;27;20041;-54
2021/12/14 08:58:25;;;;;;;11.15;6.75;;;;;;;;;;5101320;27;20040;-55
2021/12/14 09:00:56;;;;;;;14.63;8.10;;;;;;;;;;5097848;28;20032;-53
2021/12/14 09:03:33;;;;;;;25.33;12.90;;;;;;;;;;5102218;27;20604;-50
2021/12/14 09:06:08;;;;;;;38.45;20.25;;;;;;;;;;5100613;27;20031;-53
2021/12/14 09:08:35;;;;;;;37.60;18.95;;;;;;;;;;5095950;27;20020;-54
2021/12/14 09:11:01;;;;;;;40.42;21.30;;;;;;;;;;5093221;28;20765;-54
2021/12/14 09:13:28;;;;;;;32.55;19.60;;;;;;;;;;5096279;28;22516;-54
2021/12/14 09:15:59;;;;;;;32.05;19.42;;;;;;;;;;5107874;28;20114;-54
2021/12/14 09:18:27;;;;;;;35.60;18.38;;;;;;;;;;5085021;28;20023;-54
2021/12/14 09:20:57;;;;;;;29.73;16.52;;;;;;;;;;5094890;28;20047;-54
2021/12/14 09:23:28;;;;;;;30.83;18.80;;;;;;;;;;5096703;28;20035;-52
2021/12/14 09:25:55;;;;;;;33.40;18.23;;;;;;;;;;5080865;28;20518;-51
2021/12/14 09:28:21;;;;;;;30.50;18.77;;;;;;;;;;5104696;27;20031;-50
2021/12/14 09:30:56;;;;;;;34.63;19.58;;;;;;;;;;5101164;28;20469;-53
2021/12/14 09:33:24;;;;;;;46.63;24.95;;;;;;;;;;5099771;27;20376;-54
2021/12/14 09:35:53;;;;;;;36.67;24.35;;;;;;;;;;5099137;28;20080;-51
2021/12/14 09:38:20;;;;;;;10.35;7.10;;;;;;;;;;5093297;28;20028;-53
2021/12/14 09:40:54;;;;;;;11.80;7.20;;;;;;;;;;5095378;28;20075;-55
2021/12/14 09:43:22;;;;;;;8.50;4.85;;;;;;;;;;5102058;27;20059;-55
2021/12/14 09:45:52;;;;;;;7.55;4.18;;;;;;;;;;5100991;28;20023;-54
2021/12/14 09:48:27;;;;;;;5.55;4.30;;;;;;;;;;5101399;27;20028;-54
2021/12/14 09:50:56;;;;;;;5.10;4.18;;;;;;;;;;5095625;28;20658;-54
2021/12/14 09:53:24;;;;;;;4.90;4.07;;;;;;;;;;5104689;27;20089;-54
2021/12/14 09:55:52;;;;;;;11.77;5.15;;;;;;;;;;5092690;28;20119;-54
2021/12/14 09:58:26;;;;;;;5.47;3.80;;;;;;;;;;5101171;28;20081;-54
2021/12/14 10:01:04;;;;;;;7.30;4.05;;;;;;;;;;5098548;28;20028;-50
2021/12/14 10:03:29;;;;;;;9.75;4.95;;;;;;;;;;5098825;28;20119;-55
2021/12/14 10:05:59;;;;;;;12.85;8.30;;;;;;;;;;5097184;28;20047;-55
2021/12/14 10:08:30;;;;;;;50.88;19.48;;;;;;;;;;5096697;28;20039;-52
2021/12/14 10:11:14;;;;;;;36.37;17.63;;;;;;;;;;5102632;28;20035;-48
2021/12/14 10:13:45;;;;;;;25.15;16.10;;;;;;;;;;5099344;27;20085;-53
2021/12/14 10:16:11;;;;;;;36.78;17.80;;;;;;;;;;5095096;28;20032;-52
2021/12/14 10:18:42;;;;;;;36.70;16.77;;;;;;;;;;5096667;27;20028;-50
2021/12/14 10:21:13;;;;;;;29.92;17.08;;;;;;;;;;5105473;27;20047;-52
2021/12/14 10:23:41;;;;;;;34.63;16.30;;;;;;;;;;5106453;27;20503;-49
2021/12/14 10:26:09;;;;;;;30.05;15.90;;;;;;;;;;5096470;28;20039;-52
2021/12/14 10:28:37;;;;;;;30.60;16.30;;;;;;;;;;5099562;27;20036;-47
2021/12/14 10:31:08;;;;;;;32.30;17.35;;;;;;;;;;5101902;28;20020;-50
2021/12/14 10:33:34;;;;;;;38.78;19.50;;;;;;;;;;5097140;28;20106;-52
2021/12/14 10:36:14;;;;;;;47.20;19.30;;;;;;;;;;5099039;28;20032;-50
2021/12/14 10:39:01;;;;;;;39.50;20.75;;;;;;;;;;5103314;27;20089;-52
2021/12/14 10:44:11;;;;;;;51.75;20.80;;;;;;;;;;5096297;27;20060;-50
2021/12/14 10:46:46;;;;;;;52.92;22.60;;;;;;;;;;5095339;28;20055;-50
2021/12/14 10:49:15;;;;;;;33.65;19.00;;;;;;;;;;5095405;27;20040;-48
2021/12/14 10:51:44;;;;;;;44.55;20.40;;;;;;;;;;5101289;28;20027;-54
2021/12/14 10:54:13;;;;;;;55.13;26.83;;;;;;;;;;5096605;28;20039;-46
2021/12/14 10:56:44;;;;;;;54.80;27.70;;;;;;;;;;5091578;28;20074;-50
2021/12/14 10:59:12;;;;;;;67.88;30.65;;;;;;;;;;5092987;28;20043;-50
2021/12/14 11:01:39;;;;;;;45.72;28.42;;;;;;;;;;5102476;28;20490;-48
2021/12/14 11:04:09;;;;;;;65.78;30.52;;;;;;;;;;5102648;27;20126;-50
2021/12/14 11:06:38;;;;;;;51.92;29.15;;;;;;;;;;5072914;28;20567;-50
2021/12/14 11:11:44;;;;;;;47.80;27.05;;;;;;;;;;5100365;28;20020;-48
2021/12/14 11:14:15;;;;;;;51.63;26.10;;;;;;;;;;5094752;28;20062;-51
2021/12/14 11:20:00;;;;;;;39.60;23.17;;;;;;;;;;5096556;28;20042;-53
2021/12/14 11:22:32;;;;;;;50.15;25.60;;;;;;;;;;5097386;28;20396;-52
2021/12/14 11:25:10;;;;;;;43.20;24.52;;;;;;;;;;5094905;28;20504;-49
2021/12/14 11:27:41;;;;;;;39.15;25.20;;;;;;;;;;5094116;27;20028;-51
2021/12/14 11:30:25;;;;;;;48.60;26.98;;;;;;;;;;5093900;28;20051;-49
2021/12/14 11:33:17;;;;;;;51.28;25.77;;;;;;;;;;5099728;28;20034;-47
2021/12/14 11:35:54;;;;;;;51.22;26.23;;;;;;;;;;5094669;28;20059;-54
2021/12/14 11:38:34;;;;;;;54.63;27.10;;;;;;;;;;5093713;28;20038;-53
2021/12/14 11:41:23;;;;;;;42.78;26.90;;;;;;;;;;5097196;28;20055;-49
2021/12/14 11:43:55;;;;;;;56.67;30.73;;;;;;;;;;5096454;28;20072;-52
2021/12/14 11:46:22;;;;;;;49.10;28.17;;;;;;;;;;5096552;28;20032;-50
2021/12/14 11:48:48;;;;;;;47.47;27.95;;;;;;;;;;5097109;28;20629;-54
2021/12/14 11:51:14;;;;;;;47.47;27.40;;;;;;;;;;5093954;28;20027;-48
2021/12/14 11:53:48;;;;;;;44.97;25.88;;;;;;;;;;5097154;28;20093;-49
2021/12/14 11:56:17;;;;;;;49.83;25.95;;;;;;;;;;5099949;28;20614;-49
2021/12/14 11:58:50;;;;;;;43.75;24.95;;;;;;;;;;5101538;28;20441;-49
2021/12/14 12:01:44;;;;;;;40.85;25.08;;;;;;;;;;5104104;28;20031;-51
2021/12/14 12:04:14;;;;;;;39.35;24.23;;;;;;;;;;5094557;28;20078;-52
2021/12/14 12:09:37;;;;;;;41.08;24.83;;;;;;;;;;5105905;28;20061;-53
2021/12/14 12:12:02;;;;;;;44.13;25.33;;;;;;;;;;5097087;28;20035;-54
2021/12/14 12:14:56;;;;;;;40.75;25.63;;;;;;;;;;5095340;28;20285;-51
2021/12/14 12:17:37;;;;;;;38.75;24.00;;;;;;;;;;5091598;28;20059;-52
2021/12/14 12:20:08;;;;;;;48.70;27.08;;;;;;;;;;5099591;28;20024;-52
2021/12/14 12:23:05;;;;;;;54.97;29.13;;;;;;;;;;5095138;28;20028;-48
2021/12/14 12:25:38;;;;;;;50.17;28.30;;;;;;;;;;5097488;28;20063;-53
2021/12/14 12:28:03;;;;;;;;;;;;;;;;;;5091194;28;20028;-48
2021/12/14 12:30:54;;;;;;;40.60;26.63;;;;;;;;;;5096624;28;19930;-47
2021/12/14 12:33:36;;;;;;;48.47;28.02;;;;;;;;;;5096031;28;20464;-50
2021/12/14 12:36:12;;;;;;;51.90;26.60;;;;;;;;;;5097154;28;20036;-47
2021/12/14 12:39:16;;;;;;;41.20;25.60;;;;;;;;;;5098119;27;20161;-49
2021/12/14 12:41:48;;;;;;;46.22;28.83;;;;;;;;;;5044797;28;20018;-52
2021/12/14 12:44:19;;;;;;;50.88;27.65;;;;;;;;;;5050006;28;20148;-52
2021/12/14 12:47:13;;;;;;;40.50;25.20;;;;;;;;;;5046593;28;20056;-50
2021/12/14 12:49:43;;;;;;;41.22;25.05;;;;;;;;;;5038232;28;20144;-52
2021/12/14 12:52:15;;;;;;;41.22;24.60;;;;;;;;;;5046286;28;20236;-48
2021/12/14 12:54:51;;;;;;;42.92;23.02;;;;;;;;;;5045412;28;20029;-47
2021/12/14 12:57:38;;;;;;;53.47;30.95;;;;;;;;;;5044420;28;20473;-49
2021/12/14 13:00:09;;;;;;;40.28;24.10;;;;;;;;;;5044077;28;20095;-49
2021/12/14 13:02:41;;;;;;;32.65;21.73;;;;;;;;;;5039169;28;20495;-49
2021/12/14 13:05:40;;;;;;;33.13;21.30;;;;;;;;;;5046041;28;20041;-50
2021/12/14 13:08:12;;;;;;;46.33;22.42;;;;;;;;;;4989642;28;20038;-51
2021/12/14 13:10:42;;;;;;;35.38;21.27;;;;;;;;;;4987740;28;20022;-48
2021/12/14 13:13:19;;;;;;;39.75;23.08;;;;;;;;;;4988240;28;20560;-47
2021/12/14 13:15:52;;;;;;;43.65;24.67;;;;;;;;;;4990213;28;20442;-51
2021/12/14 13:18:38;;;;;;;34.60;22.50;;;;;;;;;;5000166;28;20177;-54
2021/12/14 13:21:23;;;;;;;38.60;21.92;;;;;;;;;;5000260;28;20030;-53
2021/12/14 13:24:06;;;;;;;38.30;23.38;;;;;;;;;;4999829;28;20109;-50
2021/12/14 13:27:03;;;;;;;39.00;21.17;;;;;;;;;;5015232;28;20512;-55
2021/12/14 13:29:33;;;;;;;33.35;20.35;;;;;;;;;;5021409;28;20034;-48
2021/12/14 13:32:06;;;;;;;42.28;22.10;;;;;;;;;;5023223;28;20091;-53
2021/12/14 13:34:57;;;;;;;32.20;20.50;;;;;;;;;;5020595;28;20025;-53
2021/12/14 13:37:28;;;;;;;34.30;19.63;;;;;;;;;;5021182;28;20036;-54
2021/12/14 13:39:57;;;;;;;38.53;23.35;;;;;;;;;;5019857;28;20033;-55
2021/12/14 13:42:50;;;;;;;40.03;22.85;;;;;;;;;;5022471;28;20032;-53
2021/12/14 13:45:17;;;;;;;;;;;;;;;;;;5057992;28;20044;-55
2021/12/14 13:47:45;;;;;;;44.85;20.58;;;;;;;;;;5081666;28;19943;-53
2021/12/14 13:50:16;;;;;;;41.25;20.90;;;;;;;;;;5077076;28;20159;-54
2021/12/14 13:52:42;;;;;;;39.58;20.42;;;;;;;;;;5076108;28;20028;-53
2021/12/14 13:55:20;;;;;;;38.60;23.15;;;;;;;;;;5075074;28;20021;-51
2021/12/14 13:57:54;;;;;;;43.78;22.75;;;;;;;;;;5078007;28;20118;-48
2021/12/14 14:00:27;;;;;;;43.17;23.05;;;;;;;;;;5078927;28;20032;-49
2021/12/14 14:02:54;;;;;;;46.08;24.05;;;;;;;;;;5076031;28;20080;-50
2021/12/14 14:05:21;;;;;;;49.10;26.00;;;;;;;;;;5059387;28;20593;-55
2021/12/14 14:07:54;;;;;;;43.00;24.90;;;;;;;;;;5076624;28;20029;-51
2021/12/14 14:10:20;;;;;;;;;;;;;;;;;;5081112;28;20062;-55
2021/12/14 14:12:54;;;;;;;38.63;22.77;;;;;;;;;;5075862;28;19998;-48
2021/12/14 14:15:24;;;;;;;45.25;24.52;;;;;;;;;;5068198;28;20028;-55
2021/12/14 14:17:56;;;;;;;43.97;27.52;;;;;;;;;;5076362;28;20035;-54
2021/12/14 14:20:34;;;;;;;42.47;25.90;;;;;;;;;;5080092;28;20031;-48
2021/12/14 14:23:20;;;;;;;54.88;27.90;;;;;;;;;;5075193;28;20039;-53
2021/12/14 14:25:58;;;;;;;47.28;26.63;;;;;;;;;;5092893;28;20396;-54
2021/12/14 14:28:53;;;;;;;45.63;26.05;;;;;;;;;;5110966;27;20035;-55
2021/12/14 14:31:34;;;;;;;43.83;25.10;;;;;;;;;;5102355;27;20469;-54
2021/12/14 14:34:01;;;;;;;47.70;23.35;;;;;;;;;;5097947;27;20031;-54
2021/12/14 14:36:32;;;;;;;40.85;23.63;;;;;;;;;;5092963;28;20043;-55
2021/12/14 14:39:15;;;;;;;37.75;22.85;;;;;;;;;;5097226;28;20023;-53
2021/12/14 14:41:53;;;;;;;43.33;25.17;;;;;;;;;;5096693;28;20109;-54
2021/12/14 14:44:32;;;;;;;36.05;20.95;;;;;;;;;;5096511;28;20036;-50
2021/12/14 14:47:12;;;;;;;40.75;23.30;;;;;;;;;;5096819;28;20068;-51
2021/12/14 14:49:38;;;;;;;36.33;21.58;;;;;;;;;;5094004;28;20503;-48
2021/12/14 14:52:16;;;;;;;36.03;21.65;;;;;;;;;;5098263;27;20028;-47
2021/12/14 14:54:56;;;;;;;31.83;20.90;;;;;;;;;;5097119;28;20020;-49
2021/12/14 14:57:25;;;;;;;39.83;20.48;;;;;;;;;;5089628;28;20059;-53
2021/12/14 15:00:00;;;;;;;29.83;20.08;;;;;;;;;;5099937;28;20426;-53
2021/12/14 15:02:35;;;;;;;34.03;20.15;;;;;;;;;;5098631;28;20067;-50
2021/12/14 15:05:08;;;;;;;28.30;18.38;;;;;;;;;;5098948;28;20031;-49
2021/12/14 15:08:01;;;;;;;34.95;20.00;;;;;;;;;;5096290;28;20034;-49
2021/12/14 15:10:35;;;;;;;29.17;18.80;;;;;;;;;;5100619;28;20354;-55
2021/12/14 15:13:26;;;;;;;34.17;21.75;;;;;;;;;;5101232;27;20110;-55
2021/12/14 15:15:59;;;;;;;41.42;25.55;;;;;;;;;;5091517;28;20089;-55
2021/12/14 15:19:06;;;;;;;60.83;31.33;;;;;;;;;;5103388;28;20024;-50
2021/12/14 15:21:39;;;;;;;53.35;31.45;;;;;;;;;;5040923;28;20033;-53
2021/12/14 15:24:24;;;;;;;68.07;35.95;;;;;;;;;;5040396;28;20053;-52
2021/12/14 15:27:08;;;;;;;59.80;36.83;;;;;;;;;;5018515;28;20040;-50
2021/12/14 15:29:57;;;;;;;70.05;37.08;;;;;;;;;;5021239;28;20438;-52
2021/12/14 15:32:25;;;;;;;51.80;32.15;;;;;;;;;;5023777;28;20141;-50
2021/12/14 15:35:08;;;;;;;55.90;33.38;;;;;;;;;;5019548;28;20060;-49
2021/12/14 15:37:48;;;;;;;46.53;31.25;;;;;;;;;;5022803;28;20617;-54